createdAt,value
2023-05-19T00:01:31.331Z,11.97
2023-05-19T00:04:02.600Z,12.60
2023-05-19T00:06:34.268Z,12.78
2023-05-19T00:09:04.335Z,12.79
2023-05-19T00:14:16.278Z,12.71
2023-05-19T00:16:43.419Z,12.38
2023-05-19T00:19:10.374Z,12.07
2023-05-19T00:24:23.719Z,12.69
2023-05-19T00:26:50.825Z,11.07
2023-05-19T00:29:19.037Z,12.49
2023-05-19T00:31:46.394Z,12.69
2023-05-19T00:34:13.141Z,12.69
2023-05-19T00:36:39.958Z,12.72
2023-05-19T00:39:06.686Z,11.50
2023-05-19T00:41:33.546Z,12.58
2023-05-19T00:44:00.360Z,12.55
2023-05-19T00:46:27.149Z,12.07
2023-05-19T00:48:54.011Z,11.93
2023-05-19T00:54:05.746Z,12.54
2023-05-19T00:56:32.815Z,12.53
2023-05-19T00:59:00.964Z,11.82
2023-05-19T01:04:16.980Z,12.55
2023-05-19T01:06:44.014Z,12.58
2023-05-19T01:09:10.842Z,12.53
2023-05-19T01:11:37.637Z,12.49
2023-05-19T01:14:04.447Z,12.30
2023-05-19T01:16:39.483Z,12.15
2023-05-19T01:19:33.065Z,12.03
2023-05-19T01:22:14.559Z,12.40
2023-05-19T01:27:56.379Z,12.45
2023-05-19T01:30:49.491Z,12.45
2023-05-19T01:33:19.034Z,12.40
2023-05-19T01:38:34.041Z,11.59
2023-05-19T01:41:04.070Z,12.44
2023-05-19T01:43:31.694Z,11.14
2023-05-19T01:48:52.498Z,12.43
2023-05-19T01:51:20.098Z,12.43
2023-05-19T01:53:47.046Z,11.74
2023-05-19T01:56:21.955Z,12.16
2023-05-19T01:58:57.369Z,12.47
2023-05-19T02:01:33.223Z,12.52
2023-05-19T02:04:13.899Z,12.52
2023-05-19T02:06:42.221Z,12.53
2023-05-19T02:09:16.306Z,12.57
2023-05-19T02:11:47.651Z,12.50
2023-05-19T02:14:33.216Z,11.72
2023-05-19T02:17:00.937Z,12.43
2023-05-19T02:22:17.210Z,12.17
2023-05-19T02:27:34.067Z,12.51
2023-05-19T02:30:03.732Z,12.18
2023-05-19T02:32:32.069Z,11.69
2023-05-19T02:34:59.005Z,11.22
2023-05-19T02:40:12.849Z,12.50
2023-05-19T02:42:39.835Z,12.41
2023-05-19T02:45:07.468Z,11.94
2023-05-19T02:47:36.906Z,11.77
2023-05-19T02:52:50.175Z,10.96
2023-05-19T02:55:17.745Z,10.68
2023-05-19T02:57:44.850Z,10.93
2023-05-19T03:00:12.160Z,11.69
2023-05-19T03:02:39.668Z,12.44
2023-05-19T03:05:07.877Z,11.51
2023-05-19T03:07:35.028Z,11.22
2023-05-19T03:10:06.663Z,9.86
2023-05-19T03:12:33.844Z,12.06
2023-05-19T03:15:01.105Z,12.49
2023-05-19T03:17:33.726Z,12.54
2023-05-19T03:20:01.558Z,12.25
2023-05-19T03:22:28.476Z,12.56
2023-05-19T03:27:40.676Z,12.45
2023-05-19T03:30:08.106Z,11.70
2023-05-19T03:32:43.082Z,12.30
2023-05-19T03:40:45.013Z,12.68
2023-05-19T03:46:02.333Z,12.83
2023-05-19T03:48:55.389Z,11.73
2023-05-19T03:57:39.625Z,12.31
2023-05-19T04:02:52.007Z,12.85
2023-05-19T04:05:19.069Z,12.37
2023-05-19T04:10:32.038Z,12.90
2023-05-19T04:15:43.606Z,12.98
2023-05-19T04:20:57.816Z,13.09
2023-05-19T04:23:25.743Z,12.65
2023-05-19T04:25:54.288Z,11.93
2023-05-19T04:33:54.858Z,12.81
2023-05-19T04:36:22.518Z,12.80
2023-05-19T04:38:54.910Z,12.37
2023-05-19T04:41:24.451Z,12.81
2023-05-19T04:43:51.229Z,13.03
2023-05-19T04:46:24.612Z,12.07
2023-05-19T04:51:41.613Z,12.91
2023-05-19T04:54:10.182Z,12.46
2023-05-19T04:56:37.359Z,12.85
2023-05-19T05:01:49.670Z,13.03
2023-05-19T05:04:17.426Z,12.80
2023-05-19T05:06:47.986Z,12.99
2023-05-19T05:09:18.080Z,12.98
2023-05-19T05:11:45.624Z,12.98
2023-05-19T05:14:13.044Z,13.01
2023-05-19T05:19:26.780Z,12.61
2023-05-19T05:21:54.625Z,13.20
2023-05-19T05:27:08.171Z,13.35
2023-05-19T05:29:35.201Z,13.32
2023-05-19T05:32:04.102Z,13.30
2023-05-19T05:34:31.013Z,13.34
2023-05-19T05:36:57.776Z,13.19
2023-05-19T05:39:24.926Z,13.49
2023-05-19T05:44:36.717Z,13.08
2023-05-19T05:47:05.411Z,13.49
2023-05-19T05:57:50.656Z,13.62
2023-05-19T06:00:18.324Z,13.09
2023-05-19T06:02:52.156Z,13.80
2023-05-19T06:05:20.314Z,13.74
2023-05-19T06:07:48.663Z,13.87
2023-05-19T06:10:21.241Z,13.65
2023-05-19T06:12:49.519Z,14.11
2023-05-19T06:15:16.638Z,13.98
2023-05-19T06:23:40.990Z,14.72
2023-05-19T06:26:09.551Z,14.91
2023-05-19T06:28:36.402Z,14.97
2023-05-19T06:31:03.420Z,13.85
2023-05-19T06:33:44.670Z,15.73
2023-05-19T06:36:12.064Z,15.98
2023-05-19T06:38:41.418Z,15.85
2023-05-19T06:41:08.679Z,15.98
2023-05-19T06:43:35.798Z,16.06
2023-05-19T06:46:03.946Z,16.12
2023-05-19T06:48:32.341Z,16.70
2023-05-19T06:50:59.906Z,16.31
2023-05-19T06:56:11.901Z,16.55
2023-05-19T07:01:31.044Z,17.74
2023-05-19T07:06:59.126Z,18.22
2023-05-19T07:09:26.071Z,18.37
2023-05-19T07:11:52.982Z,18.26
2023-05-19T07:14:20.909Z,18.35
2023-05-19T07:16:47.880Z,18.37
2023-05-19T07:19:15.110Z,18.47
2023-05-19T07:21:43.514Z,18.25
2023-05-19T07:24:10.334Z,18.14
2023-05-19T07:34:50.884Z,17.37
2023-05-19T07:37:17.716Z,17.80
2023-05-19T07:39:44.558Z,15.94
2023-05-19T07:42:11.510Z,17.38
2023-05-19T07:47:22.771Z,17.72
2023-05-19T07:52:34.163Z,17.89
2023-05-19T07:55:01.216Z,16.89
2023-05-19T07:57:28.022Z,18.06
2023-05-19T08:05:25.673Z,17.91
2023-05-19T08:07:52.469Z,18.71
2023-05-19T08:10:19.439Z,18.42
2023-05-19T08:12:46.805Z,18.65
2023-05-19T08:20:42.369Z,18.76
2023-05-19T08:28:37.852Z,18.54
2023-05-19T08:31:04.698Z,18.71
2023-05-19T08:36:16.366Z,18.06
2023-05-19T08:44:12.014Z,18.73
2023-05-19T08:46:39.047Z,19.43
2023-05-19T08:49:12.275Z,19.56
2023-05-19T08:52:06.426Z,19.57
2023-05-19T08:57:25.834Z,19.83
2023-05-19T08:59:54.384Z,20.19
2023-05-19T09:02:22.476Z,20.50
2023-05-19T09:04:49.469Z,20.71
2023-05-19T09:07:16.631Z,20.49
2023-05-19T09:09:44.067Z,20.30
2023-05-19T09:12:11.530Z,20.12
2023-05-19T09:14:38.526Z,19.89
2023-05-19T09:19:51.381Z,21.21
2023-05-19T09:27:50.603Z,21.47
2023-05-19T09:30:18.129Z,21.64
2023-05-19T09:32:48.226Z,21.37
2023-05-19T09:35:20.234Z,20.56
2023-05-19T09:37:47.192Z,21.61
2023-05-19T09:40:15.333Z,21.80
2023-05-19T09:42:43.913Z,21.74
2023-05-19T09:50:40.788Z,21.49
2023-05-19T09:53:07.593Z,21.03
2023-05-19T09:55:34.875Z,22.12
2023-05-19T09:58:04.308Z,22.34
2023-05-19T10:03:18.860Z,22.98
2023-05-19T10:05:47.654Z,22.71
2023-05-19T10:08:17.734Z,23.25
2023-05-19T10:10:48.154Z,23.77
2023-05-19T10:13:16.554Z,23.95
2023-05-19T10:15:57.141Z,24.16
2023-05-19T10:18:27.061Z,24.53
2023-05-19T10:23:38.943Z,25.18
2023-05-19T10:31:37.104Z,25.88
2023-05-19T10:34:12.923Z,26.69
2023-05-19T10:39:42.123Z,26.10
2023-05-19T10:42:46.211Z,26.97
2023-05-19T10:45:17.838Z,26.98
2023-05-19T10:50:37.718Z,27.67
2023-05-19T10:53:04.538Z,27.86
2023-05-19T10:55:56.462Z,28.90
2023-05-19T10:58:45.102Z,29.55
2023-05-19T11:01:20.344Z,29.48
2023-05-19T11:03:57.142Z,30.32
2023-05-19T11:06:29.652Z,29.90
2023-05-19T11:09:11.506Z,31.30
2023-05-19T11:11:52.414Z,32.37
2023-05-19T11:14:24.164Z,33.05
2023-05-19T11:16:53.123Z,31.36
2023-05-19T11:19:28.001Z,35.40
2023-05-19T11:21:55.430Z,35.77
2023-05-19T11:24:36.175Z,37.65
2023-05-19T11:27:18.698Z,39.13
2023-05-19T11:29:45.816Z,40.79
2023-05-19T11:32:13.036Z,41.96
2023-05-19T11:34:40.178Z,43.63
2023-05-19T11:37:07.184Z,44.84
2023-05-19T11:39:33.996Z,45.63
2023-05-19T11:42:00.799Z,46.65
2023-05-19T11:44:27.537Z,47.19
2023-05-19T11:46:54.545Z,47.47
2023-05-19T11:49:21.576Z,47.19
2023-05-19T11:51:48.481Z,47.75
2023-05-19T11:54:15.722Z,47.91
2023-05-19T11:56:43.301Z,48.38
2023-05-19T11:59:10.404Z,47.71
2023-05-19T12:01:37.508Z,48.44
2023-05-19T12:04:10.593Z,48.23
2023-05-19T12:06:37.470Z,49.15
2023-05-19T12:09:05.525Z,49.11
2023-05-19T12:11:32.326Z,48.76
2023-05-19T12:13:59.532Z,48.44
2023-05-19T12:16:34.272Z,48.41
2023-05-19T12:19:02.271Z,48.23
2023-05-19T12:21:34.024Z,49.38
2023-05-19T12:24:02.090Z,48.37
2023-05-19T12:26:29.068Z,48.77
2023-05-19T12:28:55.782Z,49.10
2023-05-19T12:31:24.096Z,48.60
2023-05-19T12:33:53.783Z,47.49
2023-05-19T12:36:20.684Z,45.98
2023-05-19T12:38:53.240Z,45.17
2023-05-19T12:41:20.096Z,45.29
2023-05-19T12:43:46.893Z,44.68
2023-05-19T12:46:16.201Z,40.92
2023-05-19T12:48:44.322Z,36.74
2023-05-19T12:51:16.133Z,33.93
2023-05-19T12:53:43.194Z,32.56
2023-05-19T12:56:15.155Z,31.29
2023-05-19T12:58:44.197Z,31.00
2023-05-19T13:01:20.352Z,32.99
2023-05-19T13:03:47.629Z,35.07
2023-05-19T13:06:14.669Z,34.61
2023-05-19T13:08:41.909Z,31.71
2023-05-19T13:11:08.845Z,29.99
2023-05-19T13:13:35.782Z,29.30
2023-05-19T13:16:03.496Z,28.25
2023-05-19T13:18:41.934Z,27.26
2023-05-19T13:21:10.284Z,25.91
2023-05-19T13:23:38.188Z,26.13
2023-05-19T13:26:08.047Z,25.68
2023-05-19T13:28:35.498Z,25.27
2023-05-19T13:31:03.344Z,25.71
2023-05-19T13:33:32.465Z,26.17
2023-05-19T13:36:00.695Z,25.75
2023-05-19T13:38:30.919Z,25.72
2023-05-19T13:40:59.135Z,25.72
2023-05-19T13:43:26.506Z,25.30
2023-05-19T13:46:40.914Z,25.17
2023-05-19T13:49:12.388Z,25.87
2023-05-19T13:51:43.340Z,28.01
2023-05-19T13:54:12.851Z,28.27
2023-05-19T13:56:43.224Z,26.70
2023-05-19T13:59:10.985Z,26.30
2023-05-19T14:01:38.891Z,25.65
2023-05-19T14:04:07.112Z,25.32
2023-05-19T14:06:34.515Z,24.88
2023-05-19T14:09:01.959Z,23.98
2023-05-19T14:11:29.773Z,24.35
2023-05-19T14:13:57.997Z,24.14
2023-05-19T14:16:28.746Z,23.64
2023-05-19T14:18:57.559Z,23.57
2023-05-19T14:21:26.078Z,23.28
2023-05-19T14:23:53.383Z,22.70
2023-05-19T14:26:22.044Z,22.64
2023-05-19T14:28:49.732Z,22.42
2023-05-19T14:31:18.435Z,22.17
2023-05-19T14:33:46.244Z,23.12
2023-05-19T14:36:16.313Z,23.38
2023-05-19T14:38:43.469Z,23.51
2023-05-19T14:41:13.047Z,23.51
2023-05-19T14:43:42.254Z,23.43
2023-05-19T14:46:11.332Z,22.94
2023-05-19T14:48:41.354Z,23.23
2023-05-19T14:51:08.741Z,22.93
2023-05-19T14:53:36.410Z,22.29
2023-05-19T14:56:06.439Z,23.20
2023-05-19T14:58:33.670Z,23.11
2023-05-19T15:01:01.890Z,22.75
2023-05-19T15:03:28.950Z,22.75
2023-05-19T15:05:56.633Z,22.38
2023-05-19T15:08:24.110Z,22.49
2023-05-19T15:10:52.524Z,22.50
2023-05-19T15:13:21.938Z,22.32
2023-05-19T15:15:49.507Z,22.35
2023-05-19T15:18:19.248Z,22.04
2023-05-19T15:20:48.461Z,21.62
2023-05-19T15:23:16.066Z,21.70
2023-05-19T15:25:45.602Z,21.18
2023-05-19T15:28:13.474Z,21.74
2023-05-19T15:30:43.492Z,21.65
2023-05-19T15:33:12.052Z,20.59
2023-05-19T15:35:46.025Z,21.55
2023-05-19T15:38:13.143Z,21.30
2023-05-19T15:40:42.804Z,20.68
2023-05-19T15:43:10.685Z,21.70
2023-05-19T15:45:39.552Z,21.52
2023-05-19T15:48:07.038Z,21.70
2023-05-19T15:50:37.308Z,21.70
2023-05-19T15:53:07.889Z,21.61
2023-05-19T15:55:34.860Z,21.36
2023-05-19T15:58:02.749Z,21.49
2023-05-19T16:00:31.067Z,21.38
2023-05-19T16:02:59.872Z,20.71
2023-05-19T16:05:28.768Z,21.01
2023-05-19T16:07:57.517Z,20.99
2023-05-19T16:10:24.892Z,20.90
2023-05-19T16:12:52.968Z,20.52
2023-05-19T16:15:20.878Z,20.76
2023-05-19T16:17:48.108Z,20.57
2023-05-19T16:20:15.856Z,20.56
2023-05-19T16:22:44.586Z,20.15
2023-05-19T16:25:13.605Z,20.29
2023-05-19T16:27:45.386Z,19.92
2023-05-19T16:30:17.891Z,20.09
2023-05-19T16:33:01.548Z,18.68
2023-05-19T16:35:40.175Z,19.83
2023-05-19T16:38:34.736Z,20.05
2023-05-19T16:41:09.592Z,20.05
2023-05-19T16:43:39.457Z,20.06
2023-05-19T16:46:12.328Z,18.49
2023-05-19T16:48:40.098Z,18.97
2023-05-19T16:51:08.280Z,19.37
2023-05-19T16:53:38.021Z,19.88
2023-05-19T16:56:11.821Z,19.98
2023-05-19T16:58:40.606Z,19.91
2023-05-19T17:01:08.095Z,19.43
2023-05-19T17:03:41.738Z,19.60
2023-05-19T17:06:10.204Z,19.56
2023-05-19T17:08:37.909Z,19.09
2023-05-19T17:11:06.606Z,19.68
2023-05-19T17:13:36.413Z,19.15
2023-05-19T17:16:04.971Z,19.53
2023-05-19T17:18:32.549Z,19.48
2023-05-19T17:21:04.051Z,19.43
2023-05-19T17:23:32.492Z,18.64
2023-05-19T17:25:59.521Z,18.96
2023-05-19T17:28:27.569Z,19.30
2023-05-19T17:30:55.493Z,19.23
2023-05-19T17:33:22.596Z,18.94
2023-05-19T17:36:02.708Z,17.70
2023-05-19T17:39:20.031Z,18.96
2023-05-19T17:42:00.170Z,18.07
2023-05-19T17:44:30.363Z,18.87
2023-05-19T17:46:57.358Z,18.81
2023-05-19T17:49:25.657Z,18.51
2023-05-19T17:51:53.803Z,18.55
2023-05-19T17:54:22.355Z,18.42
2023-05-19T17:56:51.044Z,18.52
2023-05-19T17:59:18.830Z,18.31
2023-05-19T18:01:46.382Z,18.41
2023-05-19T18:04:15.944Z,18.34
2023-05-19T18:06:44.373Z,18.23
2023-05-19T18:09:13.874Z,18.16
2023-05-19T18:11:41.147Z,17.91
2023-05-19T18:14:08.117Z,17.93
2023-05-19T18:16:35.090Z,17.87
2023-05-19T18:19:02.310Z,17.82
2023-05-19T18:21:29.741Z,17.55
2023-05-19T18:23:58.803Z,17.18
2023-05-19T18:26:47.252Z,17.58
2023-05-19T18:29:14.899Z,16.63
2023-05-19T18:31:42.303Z,16.83
2023-05-19T18:34:09.297Z,16.38
2023-05-19T18:36:36.450Z,17.23
2023-05-19T18:39:04.689Z,17.09
2023-05-19T18:41:33.407Z,16.70
2023-05-19T18:44:00.488Z,16.93
2023-05-19T18:46:27.437Z,16.35
2023-05-19T18:48:54.238Z,16.56
2023-05-19T18:51:21.910Z,16.89
2023-05-19T18:53:50.171Z,16.87
2023-05-19T18:56:27.592Z,16.80
2023-05-19T18:58:54.999Z,16.35
2023-05-19T19:01:23.533Z,16.58
2023-05-19T19:03:52.153Z,16.48
2023-05-19T19:06:20.766Z,16.42
2023-05-19T19:08:47.936Z,16.41
2023-05-19T19:11:15.042Z,16.24
2023-05-19T19:13:42.210Z,16.34
2023-05-19T19:16:09.451Z,16.08
2023-05-19T19:18:36.743Z,14.98
2023-05-19T19:21:05.658Z,15.80
2023-05-19T19:23:33.177Z,16.14
2023-05-19T19:26:00.545Z,16.12
2023-05-19T19:28:27.728Z,16.10
2023-05-19T19:30:56.047Z,16.07
2023-05-19T19:33:28.990Z,16.00
2023-05-19T19:35:56.236Z,15.37
2023-05-19T19:38:23.413Z,15.75
2023-05-19T19:40:53.214Z,15.54
2023-05-19T19:43:20.368Z,15.44
2023-05-19T19:45:48.997Z,15.47
2023-05-19T19:48:18.532Z,15.85
2023-05-19T19:50:46.551Z,15.18
2023-05-19T19:53:14.103Z,14.78
2023-05-19T19:55:52.431Z,15.67
2023-05-19T19:58:22.795Z,15.58
2023-05-19T20:00:49.944Z,15.35
2023-05-19T20:03:17.083Z,15.46
2023-05-19T20:05:44.766Z,15.43
2023-05-19T20:08:16.096Z,15.00
2023-05-19T20:10:48.567Z,15.37
2023-05-19T20:13:16.633Z,14.85
2023-05-19T20:15:46.531Z,15.26
2023-05-19T20:18:13.590Z,15.03
2023-05-19T20:20:43.671Z,14.98
2023-05-19T20:23:10.591Z,15.09
2023-05-19T20:25:54.406Z,15.01
2023-05-19T20:32:50.109Z,14.93
2023-05-19T20:35:17.367Z,14.88
2023-05-19T20:37:49.049Z,14.05
2023-05-19T20:40:16.110Z,14.21
2023-05-19T20:42:45.377Z,14.77
2023-05-19T20:45:12.706Z,14.25
2023-05-19T20:47:39.803Z,14.70
2023-05-19T20:50:37.289Z,14.73
2023-05-19T20:53:05.184Z,14.76
2023-05-19T20:55:32.239Z,14.73
2023-05-19T20:58:06.093Z,14.64
2023-05-19T21:00:33.743Z,14.57
2023-05-19T21:03:01.577Z,14.36
2023-05-19T21:05:28.970Z,14.49
2023-05-19T21:07:56.460Z,14.13
2023-05-19T21:10:23.421Z,14.44
2023-05-19T21:12:50.465Z,14.13
2023-05-19T21:15:17.406Z,14.37
2023-05-19T21:17:44.262Z,14.31
2023-05-19T21:20:11.472Z,13.84
2023-05-19T21:22:38.315Z,13.05
2023-05-19T21:25:06.498Z,14.12
2023-05-19T21:27:36.718Z,14.10
2023-05-19T21:30:04.250Z,13.51
2023-05-19T21:32:31.194Z,13.97
2023-05-19T21:34:57.980Z,13.76
2023-05-19T21:37:24.947Z,13.48
2023-05-19T21:39:51.798Z,12.66
2023-05-19T21:42:18.735Z,12.63
2023-05-19T21:44:45.710Z,13.90
2023-05-19T21:47:12.437Z,13.52
2023-05-19T21:49:40.752Z,13.81
2023-05-19T21:52:08.056Z,13.76
2023-05-19T21:54:34.871Z,13.58
2023-05-19T21:57:02.331Z,13.22
2023-05-19T21:59:29.195Z,13.48
2023-05-19T22:01:55.991Z,13.40
2023-05-19T22:04:22.944Z,13.60
2023-05-19T22:06:49.972Z,13.57
2023-05-19T22:09:17.171Z,13.05
2023-05-19T22:11:43.957Z,13.29
2023-05-19T22:14:11.199Z,13.23
2023-05-19T22:16:38.734Z,13.51
2023-05-19T22:19:05.777Z,13.50
2023-05-19T22:21:33.217Z,13.44
2023-05-19T22:24:00.016Z,13.40
2023-05-19T22:26:29.387Z,13.36
2023-05-19T22:28:56.708Z,12.96
2023-05-19T22:31:23.714Z,13.35
2023-05-19T22:33:50.612Z,13.10
2023-05-19T22:36:17.455Z,13.36
2023-05-19T22:38:44.216Z,13.34
2023-05-19T22:41:11.130Z,13.32
2023-05-19T22:43:38.172Z,13.35
2023-05-19T22:46:05.637Z,13.19
2023-05-19T22:48:32.841Z,13.37
2023-05-19T22:50:59.828Z,13.27
2023-05-19T22:53:27.652Z,13.33
2023-05-19T22:55:59.344Z,13.48
2023-05-19T22:58:33.316Z,13.46
2023-05-19T23:01:02.667Z,13.40
2023-05-19T23:03:29.561Z,13.36
2023-05-19T23:05:56.591Z,12.99
2023-05-19T23:08:23.503Z,13.24
2023-05-19T23:10:51.044Z,12.92
2023-05-19T23:13:17.905Z,13.09
2023-05-19T23:15:44.626Z,11.99
2023-05-19T23:18:11.613Z,12.22
2023-05-19T23:20:38.457Z,13.04
2023-05-19T23:23:05.866Z,13.06
2023-05-19T23:25:32.786Z,12.81
2023-05-19T23:27:59.762Z,12.81
2023-05-19T23:30:26.801Z,12.32
2023-05-19T23:32:54.131Z,12.70
2023-05-19T23:35:21.115Z,13.00
2023-05-19T23:37:48.165Z,12.83
2023-05-19T23:40:15.224Z,12.03
2023-05-19T23:42:42.019Z,13.09
2023-05-19T23:45:09.158Z,12.27
2023-05-19T23:47:36.264Z,13.15
2023-05-19T23:50:03.115Z,13.19
2023-05-19T23:52:29.987Z,13.15
2023-05-19T23:54:56.781Z,13.08
2023-05-19T23:57:23.746Z,12.36
2023-05-19T23:59:50.606Z,13.02
